Time;durP1;ratioP1;P1;durP2;ratioP2;P2;SDS_P1;SDS_P2;PMS_P1;PMS_P2;Temp;Humidity;BMP_temperature;BMP_pressure;BME280_temperature;BME280_humidity;BME280_pressure;Samples;Min_cycle;Max_cycle;Signal;HPM_P1;HPM_P2
2022/07/31 00:00:38;;;;;;;3.78;2.38;;;18.60;99.90;;;;;;5051613;28;20177;-58
2022/07/31 00:03:05;;;;;;;3.35;2.17;;;18.60;99.90;;;;;;5059870;28;20180;-58
2022/07/31 00:05:30;;;;;;;2.42;2.08;;;18.60;99.90;;;;;;5061153;28;20181;-58
2022/07/31 00:07:57;;;;;;;3.88;2.42;;;18.60;99.90;;;;;;5052258;28;20213;-58
2022/07/31 00:10:23;;;;;;;6.20;2.40;;;18.60;99.90;;;;;;5052051;28;20177;-58
2022/07/31 00:12:49;;;;;;;3.03;2.30;;;18.70;99.90;;;;;;5051146;28;20176;-59
2022/07/31 00:15:15;;;;;;;4.93;2.55;;;18.60;99.90;;;;;;5064523;28;20169;-58
2022/07/31 00:17:42;;;;;;;5.50;2.70;;;18.80;99.90;;;;;;5064190;28;20181;-58
2022/07/31 00:20:12;;;;;;;4.07;2.47;;;18.80;99.90;;;;;;5051139;28;20169;-59
2022/07/31 00:22:38;;;;;;;3.90;2.50;;;18.80;99.90;;;;;;5051074;28;20663;-58
2022/07/31 00:25:04;;;;;;;3.08;2.10;;;18.80;99.90;;;;;;5050938;28;20211;-58
2022/07/31 00:27:30;;;;;;;3.30;2.20;;;18.80;99.90;;;;;;5055201;28;20183;-58
2022/07/31 00:29:56;;;;;;;3.67;2.20;;;18.80;99.90;;;;;;5056325;28;20643;-57
2022/07/31 00:32:23;;;;;;;2.42;2.00;;;18.90;99.90;;;;;;5050864;28;20640;-58
2022/07/31 00:34:48;;;;;;;2.97;2.00;;;18.90;99.90;;;;;;5051748;28;20221;-58
2022/07/31 00:37:14;;;;;;;2.40;2.00;;;18.90;99.90;;;;;;5061772;28;20525;-57
2022/07/31 00:39:40;;;;;;;3.28;2.40;;;18.90;99.90;;;;;;5050836;28;20218;-58
2022/07/31 00:42:19;;;;;;;2.85;2.10;;;18.90;99.90;;;;;;5050899;28;20543;-57
2022/07/31 00:44:45;;;;;;;4.72;1.98;;;19.00;99.90;;;;;;5050854;28;20540;-57
2022/07/31 00:47:11;;;;;;;3.53;2.28;;;19.00;99.90;;;;;;5052269;28;20165;-57
2022/07/31 00:49:37;;;;;;;5.25;2.47;;;18.90;99.90;;;;;;5071040;28;20517;-57
2022/07/31 00:52:03;;;;;;;4.78;2.38;;;18.90;99.90;;;;;;5068863;28;20248;-60
2022/07/31 00:54:29;;;;;;;2.85;2.47;;;18.90;99.90;;;;;;5070110;28;20172;-57
2022/07/31 00:56:55;;;;;;;3.55;2.40;;;18.90;99.90;;;;;;5070676;28;20244;-57
2022/07/31 00:59:20;;;;;;;7.95;2.55;;;18.90;99.90;;;;;;5051032;28;20535;-57
2022/07/31 01:01:46;;;;;;;2.70;2.30;;;19.00;99.90;;;;;;5055732;28;20172;-57
2022/07/31 01:04:14;;;;;;;3.00;2.13;;;19.00;99.90;;;;;;5069594;28;20781;-57
2022/07/31 01:06:40;;;;;;;4.35;2.10;;;19.00;99.90;;;;;;5053030;28;20190;-57
2022/07/31 01:09:05;;;;;;;2.70;2.17;;;19.10;99.90;;;;;;5064094;28;20549;-57
2022/07/31 01:11:49;;;;;;;5.28;2.33;;;19.00;99.90;;;;;;5050499;28;20602;-57
2022/07/31 01:14:18;;;;;;;3.40;2.20;;;19.00;99.90;;;;;;5050597;28;20228;-57
2022/07/31 01:16:47;;;;;;;3.53;2.38;;;19.00;99.90;;;;;;5052591;28;20172;-58
2022/07/31 01:19:30;;;;;;;8.10;3.40;;;19.00;99.90;;;;;;5071288;28;20233;-57
2022/07/31 01:22:33;;;;;;;7.75;3.88;;;19.10;99.90;;;;;;5074324;28;20247;-56
2022/07/31 01:25:36;;;;;;;15.35;4.43;;;19.10;99.90;;;;;;5074379;28;20212;-57
2022/07/31 01:28:30;;;;;;;13.07;5.10;;;19.10;99.90;;;;;;5066555;28;20179;-57
2022/07/31 01:31:12;;;;;;;12.38;4.70;;;19.10;99.90;;;;;;5051902;28;20185;-57
2022/07/31 01:33:52;;;;;;;15.15;4.97;;;19.10;99.90;;;;;;5071275;28;20200;-56
2022/07/31 01:36:21;;;;;;;13.27;5.13;;;19.10;99.90;;;;;;5060618;28;20185;-56
2022/07/31 01:38:51;;;;;;;25.35;5.10;;;19.10;99.90;;;;;;5068087;28;20184;-57
2022/07/31 01:41:22;;;;;;;15.98;4.82;;;19.10;99.90;;;;;;5074159;28;20177;-57
2022/07/31 01:43:53;;;;;;;17.45;4.93;;;19.10;99.90;;;;;;5067645;28;20219;-57
2022/07/31 01:46:20;;;;;;;14.70;4.78;;;19.10;99.90;;;;;;5054487;28;20207;-57
2022/07/31 01:48:48;;;;;;;13.80;4.82;;;19.10;99.90;;;;;;5039520;28;20181;-57
2022/07/31 01:51:16;;;;;;;12.52;4.57;;;19.10;99.90;;;;;;5054475;28;20185;-56
2022/07/31 01:53:45;;;;;;;10.45;4.72;;;19.10;99.90;;;;;;5047624;28;20251;-58
2022/07/31 01:56:15;;;;;;;12.00;4.78;;;19.10;99.90;;;;;;5033858;28;20177;-58
2022/07/31 01:58:43;;;;;;;11.70;4.43;;;19.10;99.90;;;;;;5057937;28;20203;-58
2022/07/31 02:01:11;;;;;;;8.27;4.40;;;19.20;99.90;;;;;;5073392;28;20172;-58
2022/07/31 02:03:38;;;;;;;8.68;3.80;;;19.20;99.90;;;;;;5058144;28;20236;-58
2022/07/31 02:06:04;;;;;;;8.07;4.18;;;19.20;99.90;;;;;;5059724;28;20189;-56
2022/07/31 02:08:31;;;;;;;9.05;3.65;;;19.20;99.90;;;;;;5064152;28;20177;-56
2022/07/31 02:10:59;;;;;;;6.70;4.00;;;19.20;99.90;;;;;;5073524;28;20165;-56
2022/07/31 02:13:26;;;;;;;9.02;4.10;;;19.20;99.90;;;;;;5071957;28;20537;-57
2022/07/31 02:15:58;;;;;;;7.70;3.60;;;19.20;99.90;;;;;;5062456;28;20179;-57
2022/07/31 02:18:25;;;;;;;13.13;3.90;;;19.30;99.90;;;;;;5061985;28;20180;-57
2022/07/31 02:20:52;;;;;;;5.53;3.35;;;19.30;99.90;;;;;;5072075;28;20230;-57
2022/07/31 02:23:18;;;;;;;9.40;3.42;;;19.20;99.90;;;;;;5073218;28;20531;-57
2022/07/31 02:25:45;;;;;;;6.70;3.40;;;19.20;99.90;;;;;;5073428;28;20184;-57
2022/07/31 02:28:16;;;;;;;7.78;3.42;;;19.20;99.90;;;;;;5066037;28;20223;-57
2022/07/31 02:30:43;;;;;;;7.93;3.70;;;19.20;99.90;;;;;;5052874;28;20193;-57
2022/07/31 02:33:21;;;;;;;11.00;3.67;;;19.20;99.90;;;;;;5051774;28;20169;-58
2022/07/31 02:35:49;;;;;;;4.60;3.30;;;19.30;99.90;;;;;;5061305;28;20185;-58
2022/07/31 02:38:18;;;;;;;9.07;3.85;;;19.20;99.90;;;;;;5063018;28;20177;-58
2022/07/31 02:40:44;;;;;;;11.77;4.20;;;19.30;99.90;;;;;;5061959;28;20181;-57
2022/07/31 02:43:11;;;;;;;9.05;3.30;;;19.20;99.90;;;;;;5052740;28;20252;-58
2022/07/31 02:45:37;;;;;;;4.88;3.20;;;19.20;99.90;;;;;;5053083;28;20234;-57
2022/07/31 02:48:04;;;;;;;5.53;3.30;;;19.20;99.90;;;;;;5057583;28;20281;-58
2022/07/31 02:50:31;;;;;;;4.53;2.90;;;19.20;99.90;;;;;;5072666;28;20221;-57
2022/07/31 02:52:57;;;;;;;5.38;3.45;;;19.20;99.90;;;;;;5072654;28;20231;-58
2022/07/31 02:55:23;;;;;;;8.68;3.05;;;19.10;99.90;;;;;;5072522;28;20176;-58
2022/07/31 02:57:50;;;;;;;7.57;3.50;;;19.20;99.90;;;;;;5057890;28;20225;-57
2022/07/31 03:00:26;;;;;;;7.15;3.60;;;19.20;99.90;;;;;;5072636;28;20176;-57
2022/07/31 03:02:53;;;;;;;7.70;3.50;;;19.20;99.90;;;;;;5072194;28;20202;-58
2022/07/31 03:05:20;;;;;;;5.40;3.55;;;19.20;99.90;;;;;;5071893;28;20216;-58
2022/07/31 03:07:46;;;;;;;8.27;3.40;;;19.20;99.90;;;;;;5069093;28;20237;-57
2022/07/31 03:10:12;;;;;;;4.63;2.90;;;19.20;99.90;;;;;;5052079;28;20726;-58
2022/07/31 03:12:40;;;;;;;7.07;3.65;;;19.10;99.90;;;;;;5052265;28;20197;-58
2022/07/31 03:15:12;;;;;;;5.18;3.13;;;19.10;99.90;;;;;;5052231;28;20630;-58
2022/07/31 03:17:39;;;;;;;10.52;3.60;;;19.10;99.90;;;;;;5053230;28;20181;-58
2022/07/31 03:20:07;;;;;;;5.20;3.00;;;19.10;99.90;;;;;;5032222;28;20174;-59
2022/07/31 03:22:33;;;;;;;5.97;3.47;;;19.10;99.90;;;;;;5032169;28;20166;-58
2022/07/31 03:25:00;;;;;;;6.55;3.10;;;19.10;99.90;;;;;;5032161;28;20210;-64
2022/07/31 03:27:26;;;;;;;6.30;3.92;;;19.10;99.90;;;;;;5041648;28;20657;-58
2022/07/31 03:29:53;;;;;;;6.13;3.45;;;19.10;99.90;;;;;;5051399;28;20185;-57
2022/07/31 03:32:19;;;;;;;6.53;3.22;;;19.10;99.90;;;;;;5051902;28;20173;-56
2022/07/31 03:34:45;;;;;;;4.85;3.30;;;19.10;99.90;;;;;;5051543;28;20224;-57
2022/07/31 03:37:11;;;;;;;6.88;3.28;;;19.10;99.90;;;;;;5050598;28;20255;-57
2022/07/31 03:39:37;;;;;;;5.80;3.13;;;19.00;99.90;;;;;;5051003;28;20652;-56
2022/07/31 03:42:03;;;;;;;5.60;3.47;;;19.00;99.90;;;;;;5051977;28;20655;-56
2022/07/31 03:44:31;;;;;;;7.13;3.45;;;19.00;99.90;;;;;;5051862;28;20580;-56
2022/07/31 03:46:58;;;;;;;7.15;3.47;;;19.00;99.90;;;;;;5051600;28;20170;-56
2022/07/31 03:49:25;;;;;;;6.35;3.47;;;19.00;99.90;;;;;;5051597;28;20174;-57
2022/07/31 03:51:51;;;;;;;6.70;3.17;;;19.00;99.90;;;;;;5051588;28;20244;-56
2022/07/31 03:54:16;;;;;;;8.45;3.35;;;18.90;99.90;;;;;;5051594;28;20244;-56
2022/07/31 03:56:46;;;;;;;7.15;3.40;;;18.90;99.90;;;;;;5050199;28;20189;-57
2022/07/31 03:59:14;;;;;;;6.47;3.58;;;18.90;99.90;;;;;;5051407;28;20181;-57
2022/07/31 04:01:40;;;;;;;5.38;3.70;;;18.90;99.90;;;;;;5048813;28;20182;-57
2022/07/31 04:04:06;;;;;;;8.73;3.40;;;18.90;99.90;;;;;;5039910;28;20579;-57
2022/07/31 04:06:32;;;;;;;12.77;3.67;;;18.90;99.90;;;;;;5051233;28;20188;-57
2022/07/31 04:09:00;;;;;;;5.22;3.35;;;18.90;99.90;;;;;;5037698;28;20177;-56
2022/07/31 04:11:27;;;;;;;7.57;3.78;;;18.80;99.90;;;;;;5031123;28;20632;-56
2022/07/31 04:13:53;;;;;;;8.98;4.47;;;18.70;99.90;;;;;;5031241;28;20239;-56
2022/07/31 04:16:19;;;;;;;7.47;4.35;;;18.60;99.90;;;;;;5031361;28;20170;-56
2022/07/31 04:18:44;;;;;;;9.05;4.05;;;18.60;99.90;;;;;;5031126;28;20640;-56
2022/07/31 04:21:10;;;;;;;12.45;4.43;;;18.50;99.90;;;;;;5044832;28;20191;-56
2022/07/31 04:23:36;;;;;;;9.50;4.20;;;18.50;99.90;;;;;;5050788;28;20217;-56
2022/07/31 04:26:02;;;;;;;9.15;4.20;;;18.50;99.90;;;;;;5051127;28;20184;-56
2022/07/31 04:28:28;;;;;;;13.60;5.30;;;18.40;99.90;;;;;;5051365;28;20248;-56
2022/07/31 04:30:53;;;;;;;14.90;5.10;;;18.40;99.90;;;;;;5050947;28;20195;-56
2022/07/31 04:33:19;;;;;;;11.90;4.55;;;18.40;99.90;;;;;;5050773;28;20220;-56
2022/07/31 04:35:46;;;;;;;11.45;5.15;;;18.40;99.90;;;;;;5050765;28;20169;-56
2022/07/31 04:38:13;;;;;;;8.90;4.90;;;18.30;99.90;;;;;;5051111;28;20188;-56
2022/07/31 04:40:39;;;;;;;10.07;4.80;;;18.30;99.90;;;;;;5050992;28;20170;-56
2022/07/31 04:43:04;;;;;;;12.40;5.47;;;18.30;99.90;;;;;;5050938;28;20169;-56
2022/07/31 04:45:30;;;;;;;9.80;4.78;;;18.20;99.90;;;;;;5050778;28;20679;-56
2022/07/31 04:47:56;;;;;;;12.90;5.88;;;18.20;99.90;;;;;;5050777;28;20319;-56
2022/07/31 04:50:21;;;;;;;14.20;5.45;;;18.20;99.90;;;;;;5052529;28;20173;-56
2022/07/31 04:52:47;;;;;;;13.85;5.55;;;18.20;99.90;;;;;;5054887;28;20165;-57
2022/07/31 04:55:13;;;;;;;14.13;5.78;;;18.10;99.90;;;;;;5054789;28;20196;-56
2022/07/31 04:57:39;;;;;;;13.18;5.97;;;18.10;99.90;;;;;;5054678;28;20180;-57
2022/07/31 05:00:06;;;;;;;9.13;5.47;;;18.10;99.90;;;;;;5054712;28;20169;-57
2022/07/31 05:02:31;;;;;;;9.25;5.75;;;18.10;99.90;;;;;;5054565;28;20169;-56
2022/07/31 05:04:57;;;;;;;15.68;6.05;;;18.00;99.90;;;;;;5055126;28;20215;-57
2022/07/31 05:07:24;;;;;;;14.63;5.95;;;18.10;99.90;;;;;;5054616;28;20643;-57
2022/07/31 05:09:50;;;;;;;10.15;5.65;;;18.00;99.90;;;;;;5054637;28;20169;-57
2022/07/31 05:12:16;;;;;;;11.52;6.00;;;18.00;99.90;;;;;;5054526;28;20713;-57
2022/07/31 05:14:42;;;;;;;10.00;5.60;;;18.10;99.90;;;;;;5054528;28;20257;-56
2022/07/31 05:17:07;;;;;;;9.65;5.63;;;18.00;99.90;;;;;;5054500;28;20161;-56
2022/07/31 05:19:33;;;;;;;16.45;5.82;;;18.00;99.90;;;;;;5054396;28;20607;-56
2022/07/31 05:21:59;;;;;;;9.75;5.20;;;18.00;99.90;;;;;;5054307;28;20183;-56
2022/07/31 05:24:25;;;;;;;10.10;4.50;;;18.00;99.90;;;;;;5054221;28;20296;-57
2022/07/31 05:26:51;;;;;;;9.50;4.35;;;18.10;99.90;;;;;;5054294;28;20247;-57
2022/07/31 05:29:16;;;;;;;8.23;4.53;;;18.10;99.90;;;;;;5054232;28;20184;-56
2022/07/31 05:31:42;;;;;;;8.65;4.93;;;18.10;99.90;;;;;;5054173;28;20223;-57
2022/07/31 05:34:08;;;;;;;9.18;4.78;;;18.00;99.90;;;;;;5053979;28;20262;-57
2022/07/31 05:36:34;;;;;;;11.82;5.70;;;18.00;99.90;;;;;;5054344;28;20173;-56
2022/07/31 05:38:59;;;;;;;7.93;4.68;;;18.00;99.90;;;;;;5054024;28;20646;-57
2022/07/31 05:41:25;;;;;;;8.88;4.18;;;18.00;99.90;;;;;;5052798;28;20165;-57
2022/07/31 05:43:51;;;;;;;7.90;4.43;;;18.10;99.90;;;;;;5053862;28;20248;-57
2022/07/31 05:46:17;;;;;;;6.50;4.00;;;18.10;99.90;;;;;;5053877;28;20227;-57
2022/07/31 05:48:43;;;;;;;7.47;3.17;;;18.10;99.90;;;;;;5053842;28;20478;-56
2022/07/31 05:51:10;;;;;;;6.03;3.10;;;18.10;99.90;;;;;;5054243;28;20263;-57
2022/07/31 05:53:37;;;;;;;7.13;3.38;;;18.10;99.90;;;;;;5053900;28;20512;-57
2022/07/31 05:56:04;;;;;;;4.30;3.03;;;18.10;99.90;;;;;;5053891;28;20170;-56
2022/07/31 05:58:30;;;;;;;5.07;2.55;;;18.10;99.90;;;;;;5053704;28;20188;-63
2022/07/31 06:00:56;;;;;;;5.35;2.47;;;18.10;99.90;;;;;;5053476;28;20165;-63
2022/07/31 06:03:23;;;;;;;6.43;2.90;;;18.10;99.90;;;;;;5052882;28;20188;-56
2022/07/31 06:05:50;;;;;;;9.55;2.90;;;18.10;99.90;;;;;;5053863;28;20259;-58
2022/07/31 06:08:16;;;;;;;9.15;2.72;;;18.20;99.90;;;;;;5053764;28;20174;-58
2022/07/31 06:10:42;;;;;;;5.68;3.05;;;18.20;99.90;;;;;;5053477;28;20239;-57
2022/07/31 06:13:08;;;;;;;5.43;2.78;;;18.20;99.90;;;;;;5053501;28;20219;-58
2022/07/31 06:15:34;;;;;;;4.43;2.70;;;18.20;99.90;;;;;;5053457;28;20558;-58
2022/07/31 06:17:59;;;;;;;6.03;2.53;;;18.20;99.90;;;;;;5053470;28;20188;-57
2022/07/31 06:20:25;;;;;;;6.82;2.28;;;18.20;99.90;;;;;;5053347;28;20705;-58
2022/07/31 06:22:51;;;;;;;5.88;2.03;;;18.20;99.90;;;;;;5053377;28;20177;-57
2022/07/31 06:25:17;;;;;;;5.53;2.42;;;18.20;99.90;;;;;;5051882;28;20213;-57
2022/07/31 06:27:43;;;;;;;2.97;1.65;;;18.20;99.90;;;;;;5053293;28;20176;-57
2022/07/31 06:30:09;;;;;;;2.35;1.40;;;18.20;99.90;;;;;;5053268;28;20184;-56
2022/07/31 06:32:36;;;;;;;2.80;0.93;;;18.20;99.90;;;;;;5053208;28;20189;-56
2022/07/31 06:35:03;;;;;;;3.20;1.00;;;18.30;99.90;;;;;;5052989;28;20225;-56
2022/07/31 06:37:28;;;;;;;3.72;1.10;;;18.30;99.90;;;;;;5053128;28;20184;-56
2022/07/31 06:39:54;;;;;;;1.67;0.90;;;18.30;99.90;;;;;;5052972;28;20199;-59
2022/07/31 06:42:22;;;;;;;8.45;1.10;;;18.30;99.90;;;;;;5052994;28;20165;-59
2022/07/31 06:44:48;;;;;;;3.05;0.80;;;18.30;99.90;;;;;;5052820;28;20212;-59
2022/07/31 06:47:18;;;;;;;2.35;0.90;;;18.30;99.90;;;;;;5052890;28;20169;-59
2022/07/31 06:49:43;;;;;;;5.95;1.02;;;18.30;99.90;;;;;;5052984;28;20260;-60
2022/07/31 06:52:09;;;;;;;4.43;1.20;;;18.30;99.90;;;;;;5052994;28;20699;-60
2022/07/31 06:54:35;;;;;;;4.00;1.50;;;18.30;99.90;;;;;;5052737;28;20552;-60
2022/07/31 06:57:02;;;;;;;5.07;1.27;;;18.20;99.90;;;;;;5052706;28;20196;-61
2022/07/31 06:59:27;;;;;;;5.18;1.23;;;18.30;99.90;;;;;;5042312;28;20182;-61
2022/07/31 07:01:53;;;;;;;4.22;1.30;;;18.30;99.90;;;;;;5049066;28;20193;-61
2022/07/31 07:04:19;;;;;;;4.88;1.60;;;18.30;99.90;;;;;;5052334;28;20687;-60
2022/07/31 07:06:45;;;;;;;2.03;1.10;;;18.40;99.90;;;;;;5052686;28;20319;-60
2022/07/31 07:09:10;;;;;;;6.10;1.35;;;18.40;99.90;;;;;;5052358;28;20697;-66
2022/07/31 07:11:36;;;;;;;5.25;1.63;;;18.40;99.90;;;;;;5052287;28;20181;-67
2022/07/31 07:14:02;;;;;;;7.05;1.80;;;18.40;99.90;;;;;;5035805;28;20640;-77
2022/07/31 07:16:28;;;;;;;7.57;1.70;;;18.40;99.90;;;;;;5036107;28;20200;-74
2022/07/31 07:18:53;;;;;;;9.75;1.80;;;18.40;99.90;;;;;;5055961;28;20177;-78
2022/07/31 07:21:19;;;;;;;8.80;1.63;;;18.40;99.90;;;;;;5052439;28;20227;-77
2022/07/31 07:23:45;;;;;;;8.23;1.70;;;18.40;99.90;;;;;;5052453;28;20220;-76
2022/07/31 07:26:11;;;;;;;3.88;1.52;;;18.40;99.90;;;;;;5032593;28;20192;-75
2022/07/31 07:28:37;;;;;;;6.53;1.38;;;18.40;99.90;;;;;;5032341;28;20197;-76
2022/07/31 07:31:04;;;;;;;7.55;1.60;;;18.40;99.90;;;;;;5032389;28;20166;-77
2022/07/31 07:33:31;;;;;;;5.32;1.40;;;18.50;99.90;;;;;;5032239;28;20221;-77
2022/07/31 07:35:57;;;;;;;4.90;1.20;;;18.50;99.90;;;;;;5032258;28;20188;-80
2022/07/31 07:38:23;;;;;;;5.53;1.38;;;18.50;99.90;;;;;;5032298;28;20182;-80
2022/07/31 07:40:49;;;;;;;5.80;1.45;;;18.50;99.90;;;;;;5032169;28;20586;-79
2022/07/31 07:43:15;;;;;;;4.35;1.17;;;18.60;99.90;;;;;;5032237;28;20173;-77
2022/07/31 07:45:41;;;;;;;6.25;1.48;;;18.60;99.90;;;;;;5032341;28;20173;-80
2022/07/31 07:48:07;;;;;;;8.20;1.30;;;18.50;99.90;;;;;;5032036;28;20216;-81
2022/07/31 07:50:33;;;;;;;7.25;1.20;;;18.60;99.90;;;;;;5032170;28;20182;-77
2022/07/31 07:52:59;;;;;;;6.82;1.40;;;18.60;99.90;;;;;;5032090;28;20169;-75
2022/07/31 07:55:25;;;;;;;4.70;1.30;;;18.70;99.90;;;;;;5042090;28;20177;-82
2022/07/31 07:57:53;;;;;;;5.38;1.20;;;18.70;99.90;;;;;;5051548;28;20659;-76
2022/07/31 08:00:20;;;;;;;9.95;1.30;;;18.70;99.90;;;;;;5051564;28;20176;-78
2022/07/31 08:02:47;;;;;;;8.98;1.70;;;18.70;99.90;;;;;;5050335;28;20173;-71
2022/07/31 08:05:14;;;;;;;8.95;1.98;;;18.80;99.90;;;;;;5051198;28;20217;-73
2022/07/31 08:07:40;;;;;;;5.95;1.48;;;18.80;99.90;;;;;;5051246;28;20177;-73
2022/07/31 08:10:07;;;;;;;5.22;1.45;;;18.90;99.90;;;;;;5062184;28;20169;-72
2022/07/31 08:12:33;;;;;;;6.07;1.20;;;18.90;99.90;;;;;;5051584;28;20177;-71
2022/07/31 08:15:00;;;;;;;5.53;1.13;;;18.90;99.90;;;;;;5052130;28;20203;-73
2022/07/31 08:17:25;;;;;;;4.15;1.20;;;19.00;99.90;;;;;;5051347;28;20255;-71
2022/07/31 08:19:51;;;;;;;7.55;1.58;;;19.00;99.90;;;;;;5051454;28;20204;-70
2022/07/31 08:22:17;;;;;;;5.13;0.82;;;19.10;99.90;;;;;;5051454;28;20173;-78
2022/07/31 08:24:43;;;;;;;5.30;1.00;;;19.10;99.90;;;;;;5051399;28;20225;-77
2022/07/31 08:27:24;;;;;;;6.40;1.10;;;19.10;99.90;;;;;;5060219;28;20536;-63
2022/07/31 08:30:00;;;;;;;4.25;0.73;;;19.10;99.90;;;;;;5031180;28;20181;-62
2022/07/31 08:32:26;;;;;;;6.53;0.90;;;19.10;99.90;;;;;;5040427;28;20161;-63
2022/07/31 08:34:54;;;;;;;5.65;1.00;;;19.10;99.90;;;;;;5070680;28;20330;-63
2022/07/31 08:37:21;;;;;;;3.67;1.00;;;19.00;99.90;;;;;;5071000;28;20199;-63
2022/07/31 08:39:49;;;;;;;2.25;0.63;;;19.00;99.90;;;;;;5070954;28;20222;-59
2022/07/31 08:42:15;;;;;;;3.28;0.68;;;19.00;99.90;;;;;;5071195;28;20200;-60
2022/07/31 08:44:42;;;;;;;4.63;0.85;;;19.00;99.90;;;;;;5061449;28;20215;-61
2022/07/31 08:47:10;;;;;;;3.00;0.95;;;19.00;99.90;;;;;;5050912;28;20169;-59
2022/07/31 08:49:42;;;;;;;3.05;0.80;;;19.00;99.90;;;;;;5050830;28;20207;-61
2022/07/31 08:52:09;;;;;;;1.63;0.57;;;19.00;99.90;;;;;;5050904;28;20296;-59
2022/07/31 08:54:36;;;;;;;1.50;0.57;;;19.00;99.90;;;;;;5063745;28;20196;-70
2022/07/31 08:57:03;;;;;;;5.50;0.65;;;19.10;99.90;;;;;;5070733;28;20161;-70
2022/07/31 08:59:29;;;;;;;2.60;0.57;;;19.10;99.90;;;;;;5068715;28;20177;-70
2022/07/31 09:01:55;;;;;;;3.22;0.50;;;19.30;99.90;;;;;;5070759;28;20513;-70
2022/07/31 09:04:24;;;;;;;1.38;0.50;;;19.40;99.90;;;;;;5070643;28;20268;-71
2022/07/31 09:06:50;;;;;;;4.57;1.00;;;19.50;99.90;;;;;;5070758;28;20229;-72
2022/07/31 09:09:17;;;;;;;4.28;0.70;;;19.70;99.90;;;;;;5064941;28;20169;-72
2022/07/31 09:11:50;;;;;;;3.72;0.88;;;19.80;99.90;;;;;;5070692;28;20622;-72
2022/07/31 09:14:31;;;;;;;2.60;0.55;;;19.90;99.90;;;;;;5070655;28;20559;-72
2022/07/31 09:16:58;;;;;;;2.55;0.57;;;19.90;99.90;;;;;;5070609;28;20184;-72
2022/07/31 09:19:34;;;;;;;2.53;0.60;;;19.90;99.90;;;;;;5067670;28;20184;-72
2022/07/31 09:21:59;;;;;;;5.28;0.73;;;20.00;99.90;;;;;;5070478;28;20213;-72
2022/07/31 09:24:28;;;;;;;4.32;0.60;;;20.10;99.90;;;;;;5059709;28;20290;-72
2022/07/31 09:27:03;;;;;;;4.53;0.50;;;20.10;99.90;;;;;;5040559;28;20223;-72
2022/07/31 09:29:35;;;;;;;2.97;0.70;;;20.10;99.90;;;;;;5051374;28;20173;-73
2022/07/31 09:32:12;;;;;;;2.67;0.70;;;20.30;99.90;;;;;;5043679;28;20390;-71
2022/07/31 09:34:38;;;;;;;2.63;0.80;;;20.40;99.90;;;;;;5030204;28;20221;-70
2022/07/31 09:37:31;;;;;;;3.92;1.15;;;20.80;99.90;;;;;;5031761;28;20257;-69
2022/07/31 09:39:56;;;;;;;5.03;0.60;;;20.70;99.90;;;;;;5033241;28;20194;-71
2022/07/31 09:42:33;;;;;;;1.67;0.70;;;20.80;99.90;;;;;;5055187;28;20173;-70
2022/07/31 09:44:59;;;;;;;2.60;1.20;;;20.80;99.90;;;;;;5034320;28;20217;-70
2022/07/31 09:47:30;;;;;;;4.78;1.10;;;20.90;99.90;;;;;;5034742;28;20241;-70
2022/07/31 09:50:02;;;;;;;5.97;1.23;;;21.00;99.90;;;;;;5059876;28;20177;-70
2022/07/31 09:52:30;;;;;;;3.45;1.20;;;21.10;99.90;;;;;;5057122;28;20177;-70
2022/07/31 09:55:11;;;;;;;4.75;1.20;;;21.00;99.90;;;;;;5063060;28;20348;-71
2022/07/31 09:57:38;;;;;;;4.78;1.30;;;20.90;99.90;;;;;;5053467;28;20215;-70
2022/07/31 10:00:08;;;;;;;3.38;0.82;;;20.90;99.90;;;;;;5053758;28;20254;-71
2022/07/31 10:02:37;;;;;;;8.05;1.10;;;20.90;99.90;;;;;;5054046;28;20655;-71
2022/07/31 10:05:05;;;;;;;2.92;1.20;;;21.00;99.90;;;;;;5053342;28;20209;-69
2022/07/31 10:07:34;;;;;;;3.92;1.13;;;21.20;99.90;;;;;;5053645;28;20174;-71
2022/07/31 10:10:02;;;;;;;5.47;1.30;;;21.20;99.90;;;;;;5053426;28;20585;-71
2022/07/31 10:12:31;;;;;;;4.68;0.77;;;21.50;99.90;;;;;;5063753;28;20172;-71
2022/07/31 10:15:05;;;;;;;2.33;0.68;;;21.50;99.90;;;;;;5073336;28;20520;-72
2022/07/31 10:17:34;;;;;;;1.83;0.75;;;21.50;99.90;;;;;;5073162;28;20177;-70
2022/07/31 10:20:05;;;;;;;2.25;0.75;;;21.60;99.90;;;;;;5073289;28;20259;-70
2022/07/31 10:22:37;;;;;;;2.30;0.77;;;21.30;99.90;;;;;;5067023;28;20161;-69
2022/07/31 10:25:06;;;;;;;3.78;0.93;;;21.20;99.90;;;;;;5073047;28;20718;-70
2022/07/31 10:27:35;;;;;;;2.40;0.88;;;21.10;99.90;;;;;;5073287;28;20200;-70
2022/07/31 10:30:01;;;;;;;2.00;1.00;;;21.10;99.90;;;;;;5073592;28;20222;-71
2022/07/31 10:32:27;;;;;;;3.50;0.57;;;21.10;99.90;;;;;;5058957;28;20589;-69
2022/07/31 10:34:53;;;;;;;1.88;0.77;;;21.00;99.90;;;;;;5061239;28;20304;-70
2022/07/31 10:37:23;;;;;;;3.25;0.90;;;21.10;99.90;;;;;;5051776;28;20169;-70
2022/07/31 10:39:54;;;;;;;2.47;1.02;;;21.10;99.90;;;;;;5053000;28;20669;-69
2022/07/31 10:42:36;;;;;;;1.35;0.80;;;21.10;99.90;;;;;;5052937;28;20169;-69
2022/07/31 10:45:12;;;;;;;5.85;1.10;;;21.10;99.90;;;;;;5052783;28;20205;-70
2022/07/31 10:47:38;;;;;;;2.53;1.13;;;21.10;99.90;;;;;;5058889;28;20173;-70
2022/07/31 10:50:05;;;;;;;2.58;0.95;;;21.10;99.90;;;;;;5053394;28;20249;-68
2022/07/31 10:52:32;;;;;;;5.13;1.23;;;21.10;99.90;;;;;;5058438;28;20188;-70
2022/07/31 10:55:00;;;;;;;1.98;0.98;;;21.10;99.90;;;;;;5052491;28;20280;-69
2022/07/31 10:57:32;;;;;;;4.38;1.10;;;21.10;99.90;;;;;;5036761;28;20166;-70
2022/07/31 11:00:19;;;;;;;2.45;1.05;;;21.30;99.90;;;;;;5047920;28;20184;-70
2022/07/31 11:02:45;;;;;;;3.10;1.05;;;21.30;99.90;;;;;;5060572;28;20177;-70
2022/07/31 11:05:13;;;;;;;4.28;1.20;;;21.50;99.90;;;;;;5052342;28;20679;-69
2022/07/31 11:07:44;;;;;;;4.95;1.20;;;21.60;99.90;;;;;;5052216;28;20196;-70
2022/07/31 11:10:20;;;;;;;2.10;1.20;;;21.50;99.90;;;;;;5032498;28;20257;-70
2022/07/31 11:12:57;;;;;;;1.77;1.30;;;21.40;99.90;;;;;;5032434;28;20181;-71
2022/07/31 11:15:24;;;;;;;4.20;1.30;;;21.20;99.90;;;;;;5051368;28;20264;-70
2022/07/31 11:17:51;;;;;;;4.93;1.30;;;21.10;99.90;;;;;;5030936;28;20201;-70
2022/07/31 11:20:29;;;;;;;3.45;1.00;;;21.30;99.90;;;;;;5032317;28;20173;-70
2022/07/31 11:22:56;;;;;;;1.90;1.10;;;21.40;99.90;;;;;;5032199;28;20377;-70
2022/07/31 11:25:22;;;;;;;4.63;1.17;;;21.50;99.90;;;;;;5068229;28;20238;-70
2022/07/31 11:27:48;;;;;;;5.10;1.50;;;21.60;99.90;;;;;;5071964;28;20177;-70
2022/07/31 11:30:15;;;;;;;1.92;1.13;;;21.90;99.90;;;;;;5072011;28;20242;-70
2022/07/31 11:32:51;;;;;;;1.88;1.10;;;22.00;99.90;;;;;;5066993;28;20180;-70
2022/07/31 11:35:25;;;;;;;5.38;1.27;;;22.00;99.90;;;;;;5064613;28;20217;-70
2022/07/31 11:37:51;;;;;;;3.72;1.20;;;22.50;99.90;;;;;;5051884;28;20199;-70
2022/07/31 11:40:19;;;;;;;2.88;1.52;;;23.00;99.90;;;;;;5051734;28;20178;-71
2022/07/31 11:42:45;;;;;;;2.33;1.30;;;23.00;99.90;;;;;;5051627;28;20173;-70
2022/07/31 11:45:13;;;;;;;4.28;1.08;;;23.20;99.90;;;;;;5052587;28;20239;-70
2022/07/31 11:47:40;;;;;;;2.55;1.45;;;23.90;99.90;;;;;;5057850;28;20647;-71
2022/07/31 11:50:06;;;;;;;3.72;1.27;;;24.50;99.90;;;;;;5071703;28;20184;-69
2022/07/31 11:52:32;;;;;;;6.00;1.40;;;25.00;99.90;;;;;;5071658;28;20180;-71
2022/07/31 11:55:09;;;;;;;1.80;1.02;;;25.70;99.90;;;;;;5069869;28;20176;-70
2022/07/31 11:57:35;;;;;;;2.70;1.10;;;26.00;99.90;;;;;;5071422;28;20218;-71
2022/07/31 12:00:10;;;;;;;1.67;1.23;;;26.40;99.90;;;;;;5070901;28;20220;-71
2022/07/31 12:02:39;;;;;;;1.27;1.10;;;27.00;99.90;;;;;;5071440;28;20211;-71
2022/07/31 12:05:06;;;;;;;1.58;1.15;;;27.70;99.90;;;;;;5055538;28;20296;-70
2022/07/31 12:07:33;;;;;;;2.17;1.17;;;27.90;99.90;;;;;;5051311;28;20173;-70
2022/07/31 12:10:00;;;;;;;1.90;1.10;;;27.80;99.90;;;;;;5042872;28;20173;-71
2022/07/31 12:12:25;;;;;;;6.57;1.73;;;26.80;99.90;;;;;;5045512;28;20188;-70
2022/07/31 12:14:51;;;;;;;2.65;1.40;;;26.70;99.90;;;;;;5062812;28;20168;-71
2022/07/31 12:17:21;;;;;;;3.50;1.20;;;26.60;99.90;;;;;;5053794;28;20318;-71
2022/07/31 12:19:47;;;;;;;3.00;1.23;;;26.70;99.90;;;;;;5051253;28;20165;-70
2022/07/31 12:22:19;;;;;;;4.85;1.60;;;26.40;99.90;;;;;;5051157;28;20679;-71
2022/07/31 12:24:46;;;;;;;3.28;1.52;;;25.90;99.90;;;;;;5062555;28;20215;-71
2022/07/31 12:27:17;;;;;;;4.40;1.55;;;25.70;99.90;;;;;;5068669;28;20190;-71
2022/07/31 12:29:43;;;;;;;3.42;1.77;;;26.70;99.90;;;;;;5052176;28;20665;-72
2022/07/31 12:32:09;;;;;;;3.55;1.60;;;28.20;99.90;;;;;;5054863;28;20246;-72
2022/07/31 12:34:37;;;;;;;2.22;1.50;;;28.30;99.90;;;;;;5050779;28;20267;-71
2022/07/31 12:37:04;;;;;;;2.40;1.42;;;28.70;99.90;;;;;;5051940;28;20248;-71
2022/07/31 12:39:34;;;;;;;2.88;1.50;;;29.60;99.90;;;;;;5068571;28;20195;-73
2022/07/31 12:41:59;;;;;;;2.65;1.25;;;29.80;99.90;;;;;;5070927;28;20203;-72
2022/07/31 12:44:25;;;;;;;5.05;1.75;;;29.70;99.90;;;;;;5069309;28;20236;-73
2022/07/31 12:46:51;;;;;;;2.42;1.80;;;30.10;99.90;;;;;;5057661;28;20712;-73
2022/07/31 12:49:17;;;;;;;3.58;2.20;;;29.80;99.90;;;;;;5050827;28;20166;-73